Latest Weather Observations for Ceduna

IDS60801

Issued at 7:01 pm CDT Thursday 19 January 2017 (issued every 30 minutes, with the page automatically refreshed every 10 minutes)

About weather observations | Map of weather stations | Latest weather observations for SA | Other Formats
Station Details ID: 018012 Name: CEDUNA AMO Lat: -32.13 Lon: 133.70 Height: 15.3 m
Data from the previous 72 hours. | See also: Recent months at Ceduna
Date/Time
CDT
Temp
°C
App
Temp
°C
Dew
Point
°C
Rel
Hum
%
Delta-T
°C
Wind Press
QNH
hPa
Press
MSL
hPa
Rain since
9am
mm
Dir  Spd
km/h
Gust
km/h
Spd
kts
Gust
kts
19/07:00pm 25.9 24.5 20.5 72 3.6 WSW 28 39 15 21 1000.3 1000.2 6.0
19/06:30pm 27.1 27.7 21.4 71 3.8 SSW 20 26 11 14 999.7 999.6 6.0
19/06:00pm 28.2 28.6 21.0 65 4.8 SSW 20 30 11 16 999.0 998.9 6.0
19/05:30pm 30.0 32.9 22.4 63 5.2 WNW 11 13 6 7 998.1 998.0 6.0
19/05:00pm 27.7 31.7 23.1 76 3.1 S 7 13 4 7 997.8 997.7 6.0
19/04:30pm 27.2 30.3 24.1 83 2.2 WSW 15 20 8 11 998.0 997.9 5.8
19/04:00pm 26.3 28.5 24.3 89 1.4 WSW 20 30 11 16 999.0 998.9 5.8
19/03:45pm 25.8 25.8 23.8 89 1.4 W 30 43 16 23 1000.0 999.9 5.8
19/03:30pm 27.2 28.5 25.2 89 1.4 WNW 28 43 15 23 1000.2 1000.1 5.2
19/03:23pm 24.6 26.1 22.7 89 1.3 NW 19 32 10 17 1000.8 1000.7 2.6
19/03:00pm 24.7 25.5 21.8 84 1.9 S 20 28 11 15 999.5 999.4 0.2
19/02:43pm 28.0 26.4 19.2 58 5.7 SSW 26 32 14 17 999.0 998.9 0.0
19/02:30pm 33.4 33.4 20.2 46 8.8 S 20 26 11 14 998.3 998.2 0.0
19/02:00pm 33.5 34.2 21.6 49 8.1 S 20 24 11 13 999.3 999.2 0.0
19/01:30pm 34.3 34.9 21.0 45 9.0 SSW 19 22 10 12 1000.3 1000.2 0.0
19/01:00pm 35.3 36.2 20.0 40 10.2 SW 15 22 8 12 1000.9 1000.8 0.0
19/12:30pm 38.2 36.8 19.6 34 12.5 N 26 37 14 20 1001.4 1001.3 0.0
19/12:00pm 36.4 34.1 19.4 37 11.3 N 30 41 16 22 1002.1 1002.0 0.0
19/11:30am 35.8 35.2 20.5 41 10.3 NNE 24 33 13 18 1002.6 1002.5 0.0
19/11:00am 33.6 33.8 19.3 43 9.4 NNE 17 22 9 12 1003.4 1003.3 0.0
19/10:30am 31.9 33.3 19.5 47 8.2 NE 11 19 6 10 1003.9 1003.8 0.0
19/10:00am 29.8 29.7 17.9 48 7.6 NE 15 19 8 10 1004.4 1004.3 0.0
19/09:30am 27.9 26.3 16.5 50 7.1 ENE 20 28 11 15 1004.6 1004.5 0.0
19/09:00am 25.0 24.2 17.0 61 5.0 E 17 22 9 12 1005.1 1005.0 0.0
19/08:30am 24.0 23.5 17.0 65 4.3 ESE 15 20 8 11 1005.2 1005.1 0.0
19/08:00am 22.8 22.2 16.6 68 3.8 ESE 15 19 8 10 1005.2 1005.1 0.0
19/07:30am 21.2 20.5 16.4 74 2.9 ESE 15 19 8 10 1005.3 1005.2 0.0
19/07:00am 20.0 20.0 16.2 79 2.3 ESE 11 13 6 7 1005.1 1005.0 0.0
19/06:30am 19.9 18.7 16.0 78 2.3 ESE 17 19 9 10 1005.2 1005.1 0.0
19/06:00am 20.2 19.3 15.8 76 2.6 SE 15 19 8 10 1005.4 1005.3 0.0
19/05:30am 20.2 19.5 15.4 74 2.8 SE 13 17 7 9 1005.6 1005.5 0.0
19/05:00am 20.8 19.7 15.4 71 3.2 SE 15 20 8 11 1005.7 1005.6 0.0
19/04:30am 20.8 20.2 15.6 72 3.1 SE 13 19 7 10 1005.6 1005.5 0.0
19/04:00am 20.8 20.6 15.6 72 3.1 SE 11 15 6 8 1006.0 1005.9 0.0
19/03:30am 21.1 20.8 15.4 70 3.4 SE 11 13 6 7 1006.3 1006.2 0.0
19/03:00am 21.7 21.0 15.5 68 3.7 SE 13 19 7 10 1006.6 1006.5 0.0
19/02:30am 21.6 20.7 15.9 70 3.4 SE 15 20 8 11 1007.1 1007.0 0.0
19/02:00am 21.8 21.7 16.1 70 3.4 SE 11 15 6 8 1007.7 1007.6 0.0
19/01:30am 22.0 22.8 17.4 75 2.8 SE 9 17 5 9 1007.7 1007.6 0.0
19/01:00am 21.8 22.9 18.8 83 1.9 SE 11 13 6 7 1008.0 1007.9 0.0
19/12:30am 22.1 22.4 18.7 81 2.1 SSE 15 17 8 9 1007.9 1007.8 0.0
19/12:00am 22.5 22.9 19.1 81 2.2 SSE 15 17 8 9 1008.2 1008.1 0.0
 
Date/Time
CDT
Temp
°C
App
Temp
°C
Dew
Point
°C
Rel
Hum
%
Delta-T
°C
Wind Press
QNH
hPa
Press
MSL
hPa
Rain since
9am
mm
Dir  Spd
km/h
Gust
km/h
Spd
kts
Gust
kts
18/11:30pm 22.7 23.1 18.9 79 2.4 SSE 15 17 8 9 1008.7 1008.6 0.0
18/11:00pm 22.6 22.4 18.4 77 2.6 SSE 17 24 9 13 1008.8 1008.7 0.0
18/10:30pm 22.2 21.2 18.0 77 2.6 SSE 20 26 11 14 1008.7 1008.6 0.0
18/10:00pm 22.0 20.5 17.8 77 2.6 SSE 22 32 12 17 1008.7 1008.6 0.0
18/09:30pm 21.6 19.7 17.6 78 2.5 SSE 24 32 13 17 1008.7 1008.6 0.0
18/09:00pm 21.1 18.5 17.9 82 2.0 S 28 35 15 19 1008.6 1008.5 0.0
18/08:30pm 21.4 18.8 17.8 80 2.2 S 28 41 15 22 1008.8 1008.7 0.0
18/08:00pm 22.6 19.2 17.7 74 3.0 S 32 43 17 23 1008.6 1008.5 0.0
18/07:30pm 22.8 20.3 18.1 75 2.9 S 28 35 15 19 1008.4 1008.3 0.0
18/07:00pm 24.2 21.0 18.2 69 3.8 S 32 41 17 22 1008.3 1008.2 0.0
18/06:30pm 24.4 21.2 18.1 68 4.0 S 32 41 17 22 1008.4 1008.3 0.0
18/06:00pm 23.8 20.0 18.0 70 3.6 SSE 35 48 19 26 1008.5 1008.4 0.0
18/05:30pm 22.2 16.7 17.6 75 2.9 SSE 43 54 23 29 1008.5 1008.4 0.0
18/05:00pm 23.0 18.0 17.9 73 3.2 S 41 54 22 29 1009.1 1009.0 0.0
18/04:30pm 22.7 17.8 17.4 72 3.3 S 39 52 21 28 1009.3 1009.2 0.0
18/04:00pm 22.6 18.2 17.5 73 3.2 S 37 48 20 26 1009.8 1009.7 0.0
18/03:30pm 25.3 21.9 18.2 64 4.5 SSW 33 41 18 22 1010.0 1009.9 0.0
18/03:26pm 26.2 23.0 18.6 63 4.8 S 33 43 18 23 1010.0 1009.9 0.0
18/03:00pm 27.2 22.1 16.8 53 6.5 SSE 39 52 21 28 1010.0 1009.9 0.0
18/02:30pm 28.1 24.6 17.9 54 6.5 SSE 33 46 18 25 1010.3 1010.2 0.0
18/02:00pm 25.7 21.0 16.8 58 5.5 SSE 37 50 20 27 1010.7 1010.6 0.0
18/01:53pm 26.1 22.1 17.5 59 5.4 SSE 35 54 19 29 1010.9 1010.8 0.0
18/01:30pm 25.7 21.7 17.6 61 5.1 SSE 35 48 19 26 1011.4 1011.3 0.0
18/01:00pm 23.1 17.7 16.9 68 3.8 SSE 41 50 22 27 1011.7 1011.6 0.0
18/12:30pm 23.2 18.6 17.0 68 3.8 SSE 37 50 20 27 1012.0 1011.9 0.0
18/12:00pm 21.8 16.3 17.6 77 2.6 S 43 56 23 30 1012.0 1011.9 0.0
18/11:53am 22.3 17.5 18.3 78 2.5 S 41 56 22 30 1012.2 1012.1 0.0
18/11:30am 21.3 15.7 17.5 79 2.3 S 43 54 23 29 1012.5 1012.4 0.0
18/11:00am 20.7 15.9 17.5 82 2.0 S 39 50 21 27 1012.8 1012.7 0.0
18/10:58am 20.9 15.9 17.1 79 2.3 S 39 50 21 27 1012.8 1012.7 0.0
18/10:30am 21.8 18.2 17.6 77 2.6 SSE 33 44 18 24 1012.9 1012.8 0.0
18/10:00am 22.3 18.6 17.4 74 3.0 SSE 33 48 18 26 1012.9 1012.8 0.0
18/09:30am 21.2 17.2 16.8 76 2.7 SSE 33 44 18 24 1013.1 1013.0 0.0
18/09:00am 21.0 17.2 16.6 76 2.7 SE 32 43 17 23 1012.9 1012.8 0.0
18/08:34am 20.8 16.5 17.0 79 2.3 SE 35 54 19 29 1012.5 1012.4 0.0
18/08:31am 20.6 16.2 16.6 78 2.4 SE 35 54 19 29 1012.4 1012.3 0.0
18/08:30am 20.7 16.2 16.5 77 2.5 SE 35 52 19 28 1012.5 1012.4 0.0
18/08:00am 20.1 16.9 17.3 84 1.7 SSE 30 43 16 23 1012.1 1012.0 0.0
18/07:30am 19.3 15.7 17.1 87 1.3 SSE 32 46 17 25 1011.8 1011.7 0.0
18/07:00am 19.2 15.4 17.2 88 1.2 SSE 33 46 18 25 1011.6 1011.5 0.0
18/06:44am 19.1 14.9 17.1 88 1.2 SSE 35 44 19 24 1011.5 1011.4 0.0
18/06:30am 19.0 15.3 17.0 88 1.2 SSE 32 43 17 23 1011.2 1011.1 0.0
18/06:00am 19.1 15.8 17.1 88 1.2 SSE 30 39 16 21 1010.8 1010.7 0.0
18/05:30am 19.4 17.3 17.2 87 1.3 SSE 24 32 13 17 1010.5 1010.4 0.0
18/05:00am 19.6 17.9 17.2 86 1.5 SSE 22 30 12 16 1010.2 1010.1 0.0
18/04:30am 20.2 18.6 16.4 79 2.3 SE 20 26 11 14 1010.3 1010.2 0.0
18/04:00am 20.7 18.7 16.5 77 2.5 SE 22 30 12 16 1009.9 1009.8 0.0
18/03:30am 20.8 19.5 17.2 80 2.2 SSE 20 28 11 15 1009.7 1009.6 0.0
18/03:00am 20.6 18.6 17.4 82 2.0 SSE 24 32 13 17 1009.8 1009.7 0.0
18/02:30am 20.2 19.0 17.4 84 1.7 SSE 20 26 11 14 1009.8 1009.7 0.0
18/02:00am 20.1 18.1 17.5 85 1.6 SSE 24 33 13 18 1009.7 1009.6 0.0
18/01:30am 20.4 17.7 17.6 84 1.7 SSE 28 35 15 19 1009.7 1009.6 0.0
18/01:00am 20.7 19.4 18.1 85 1.6 SSE 22 28 12 15 1010.1 1010.0 0.0
18/12:30am 20.5 18.9 18.3 87 1.4 S 24 32 13 17 1009.8 1009.7 0.0
18/12:00am 20.4 18.4 18.2 87 1.4 SSE 26 33 14 18 1010.1 1010.0 0.0
 
Date/Time
CDT
Temp
°C
App
Temp
°C
Dew
Point
°C
Rel
Hum
%
Delta-T
°C
Wind Press
QNH
hPa
Press
MSL
hPa
Rain since
9am
mm
Dir  Spd
km/h
Gust
km/h
Spd
kts
Gust
kts
17/11:30pm 20.3 17.7 17.9 86 1.5 SSE 28 41 15 22 1010.4 1010.3 0.0
17/11:00pm 20.3 17.3 17.7 85 1.6 SSE 30 43 16 23 1010.3 1010.2 0.0
17/10:36pm 20.4 17.8 17.8 85 1.6 SSE 28 46 15 25 1010.5 1010.4 0.0
17/10:30pm 20.4 17.5 18.0 86 1.5 SSE 30 43 16 23 1010.4 1010.3 0.0
17/10:00pm 20.6 17.5 18.5 88 1.3 S 32 43 17 23 1009.7 1009.6 0.0
17/09:30pm 20.7 17.7 18.6 88 1.3 S 32 43 17 23 1009.1 1009.0 0.0
17/09:00pm 21.2 18.4 19.1 88 1.3 S 32 44 17 24 1008.4 1008.3 0.0
17/08:30pm 23.2 22.1 20.2 83 1.9 S 26 35 14 19 1008.0 1007.9 0.0
17/08:00pm 23.9 21.3 19.8 78 2.6 SSE 33 46 18 25 1006.9 1006.8 0.0
17/07:30pm 23.9 20.1 19.8 78 2.6 SSE 39 50 21 27 1006.6 1006.5 0.0
17/07:08pm 27.5 25.3 22.2 73 3.6 S 37 56 20 30 1006.6 1006.5 0.0
17/07:00pm 27.9 24.6 22.2 71 3.8 S 43 57 23 31 1006.5 1006.4 0.0
17/06:30pm 30.0 26.2 20.5 56 6.3 S 41 54 22 29 1005.7 1005.6 0.0
17/06:00pm 33.4 27.9 13.5 30 12.1 S 35 46 19 25 1005.2 1005.1 0.0
17/05:30pm 33.9 28.9 13.4 29 12.5 S 32 41 17 22 1005.2 1005.1 0.0
17/05:00pm 35.7 31.0 12.0 24 14.2 S 28 39 15 21 1004.9 1004.8 0.0
17/04:30pm 36.1 31.9 13.6 26 13.8 S 28 37 15 20 1004.7 1004.6 0.0
17/04:00pm 34.4 30.8 16.3 34 11.5 SSW 30 44 16 24 1004.5 1004.4 0.0
17/03:54pm 34.9 30.7 16.2 32 11.8 SSW 33 52 18 28 1004.3 1004.2 0.0
17/03:30pm 34.6 30.5 17.3 35 11.1 SSW 35 48 19 26 1004.3 1004.2 0.0
17/03:20pm 36.2 32.1 15.9 30 12.9 SSW 32 43 17 23 1004.3 1004.2 0.0
17/03:05pm 42.3 37.8 7.0 12 20.2 W 20 43 11 23 1004.2 1004.1 0.0
17/03:00pm 44.5 40.4 6.0 10 22.0 W 17 24 9 13 1004.1 1004.0 0.0
17/02:30pm 44.4 39.6 4.4 9 22.3 W 19 24 10 13 1004.4 1004.3 0.0
17/02:00pm 44.2 39.9 7.1 11 21.4 WNW 19 28 10 15 1004.8 1004.7 0.0
17/01:30pm 43.9 39.1 5.5 10 21.7 NNW 20 28 11 15 1005.2 1005.1 0.0
17/01:00pm 43.1 38.2 4.9 10 21.3 NNW 20 33 11 18 1005.6 1005.5 0.0
17/12:30pm 42.7 36.8 6.0 11 20.8 NNW 26 33 14 18 1005.9 1005.8 0.0
17/12:00pm 42.3 35.7 4.3 10 20.9 N 28 39 15 21 1005.9 1005.8 0.0
17/11:30am 41.6 34.9 3.8 10 20.6 N 28 41 15 22 1006.1 1006.0 0.0
17/11:17am 41.4 34.7 3.7 10 20.4 N 28 46 15 25 1006.1 1006.0 0.0
17/11:00am 40.8 34.1 5.8 12 19.5 N 30 41 16 22 1006.2 1006.1 0.0
17/10:30am 39.4 32.2 5.9 13 18.6 N 33 43 18 23 1006.4 1006.3 0.0
17/10:00am 38.5 31.1 5.2 13 18.2 NNE 33 39 18 21 1006.4 1006.3 0.0
17/09:30am 36.9 28.9 4.0 13 17.6 NNE 35 44 19 24 1006.3 1006.2 0.0
17/09:00am 35.0 29.4 5.4 16 16.0 NNE 24 37 13 20 1006.2 1006.1 0.0
17/08:30am 33.2 28.8 7.2 20 14.3 NE 20 30 11 16 1006.1 1006.0 0.0
17/08:00am 29.1 25.4 9.3 29 11.0 NE 19 20 10 11 1005.9 1005.8 0.0
17/07:30am 26.1 22.1 9.0 34 9.4 NE 20 22 11 12 1005.7 1005.6 0.0
17/07:00am 25.0 20.2 8.9 36 8.7 NE 24 30 13 16 1005.5 1005.4 0.0
17/06:30am 24.7 20.3 9.0 37 8.5 NE 22 26 12 14 1005.3 1005.2 0.0
17/06:00am 24.9 20.9 9.2 37 8.6 NE 20 22 11 12 1005.2 1005.1 0.0
17/05:30am 25.2 21.4 9.1 36 8.8 NE 19 22 10 12 1005.2 1005.1 0.0
17/05:00am 24.8 21.3 10.3 40 8.0 NE 19 20 10 11 1005.0 1004.9 0.0
17/04:30am 22.6 20.9 13.7 57 5.2 NE 15 19 8 10 1005.2 1005.1 0.0
17/04:00am 21.2 20.8 15.1 68 3.6 ENE 11 13 6 7 1005.3 1005.2 0.0
17/03:30am 22.1 21.8 15.5 66 4.0 NE 11 13 6 7 1005.4 1005.3 0.0
17/03:00am 22.0 22.5 15.6 67 3.8 NE 7 9 4 5 1005.6 1005.5 0.0
17/02:30am 22.2 22.3 15.5 66 4.0 E 9 11 5 6 1005.9 1005.8 0.0
17/02:00am 22.8 24.4 15.9 65 4.2 ESE 2 11 1 6 1006.2 1006.1 0.0
17/01:30am 23.4 23.6 15.7 62 4.7 ENE 9 13 5 7 1006.5 1006.4 0.0
17/01:00am 24.7 25.0 15.1 55 5.8 ENE 7 13 4 7 1006.6 1006.5 0.0
17/12:30am 25.8 26.1 14.6 50 6.7 E 6 7 3 4 1006.8 1006.7 0.0
17/12:00am 26.7 25.8 14.8 48 7.2 E 13 17 7 9 1006.9 1006.8 0.0
 
Date/Time
CDT
Temp
°C
App
Temp
°C
Dew
Point
°C
Rel
Hum
%
Delta-T
°C
Wind Press
QNH
hPa
Press
MSL
hPa
Rain since
9am
mm
Dir  Spd
km/h
Gust
km/h
Spd
kts
Gust
kts
16/11:30pm 27.8 26.0 14.4 43 8.1 ESE 17 20 9 11 1007.0 1006.9 0.0
16/11:00pm 29.0 26.2 13.2 37 9.4 ESE 20 24 11 13 1007.0 1006.9 0.0
16/10:30pm 28.9 27.6 14.7 42 8.6 ESE 15 19 8 10 1006.7 1006.6 0.0
16/10:00pm 29.0 27.5 15.2 43 8.4 SE 17 20 9 11 1006.7 1006.6 0.0
16/09:30pm 29.8 27.4 14.4 39 9.4 SE 20 24 11 13 1006.4 1006.3 0.0
16/09:00pm 32.0 29.3 11.7 28 11.9 SE 17 20 9 11 1006.1 1006.0 0.0
16/08:30pm 34.2 31.8 11.4 25 13.5 SE 15 20 8 11 1006.1 1006.0 0.0
16/08:00pm 36.2 33.3 12.4 24 14.3 SSE 19 24 10 13 1005.9 1005.8 0.0
16/07:30pm 37.7 34.2 10.9 20 15.9 SSE 20 28 11 15 1005.8 1005.7 0.0

Other Formats:

Comma delimited format used in spreadsheet applications
http://www.bom.gov.au/fwo/IDS60801/IDS60801.94653.axf

JavaScript Object Notation format (JSON) in row-major order
http://www.bom.gov.au/fwo/IDS60801/IDS60801.94653.json